AirNav   Pilot Hours Calculator
 
 1220 users online  

48MO Lions Emergency Evac Heliport
California, Missouri, USA

GOING TO CALIFORNIA?


FAA INFORMATION EFFECTIVE 31 JANUARY 2019

Location

FAA Identifier: 48MO
Lat/Long: 38-37-38.4600N / 092-32-25.9400W
38-37.641000N / 092-32.432333W
38.6273500 / -92.5405389
(estimated)
Elevation: 860 ft. / 262 m (estimated)
Variation: 04E (1985)
From city: 1 mile E of CALIFORNIA, MO
Time zone: UTC -6 (UTC -5 during Daylight Saving Time)
Zip code: 65018

Heliport Operations

Heliport use: Private use, MEDICAL USE.
Activation date: 05/1991
Control tower: no
ARTCC: KANSAS CITY CENTER
FSS: COLUMBIA FLIGHT SERVICE STATION
Attendance: UNATNDD
Wind indicator: lighted
Segmented circle: no
Lights: ACTVT PERIMETER LGTS - 123.05.

Heliport Communications

WX ASOS at JEF (18 nm E): 133.625 (573-635-9266)
WX ASOS at COU (19 nm NE): PHONE 573-499-1400

Nearby radio navigation aids

VOR radial/distance  VOR name  Freq  Var
COUr234/18.7COLUMBIA VOR/DME110.2000E
HLVr207/35.0HALLSVILLE VORTAC114.2006E
SHYr005/35.3SUNSHINE VOR/DME108.4000E

 
NDB name  Hdg/Dist  Freq  Var  ID
SEDALIA096/30.228103EDMO -.. -- ---
MARSHALL126/39.537103EPUR .--. ..- .-.

Heliport Services

Runway Information

Helipad H1

Dimensions: 30 x 30 ft. / 9 x 9 m
Surface: concrete
Runway edge lights: PERIMETER LGTS.
Latitude: 38-37.641000N
Longitude: 092-32.432333W
Elevation: 860.0 ft.
Traffic pattern: leftleft

Heliport Ownership and Management from official FAA records

Ownership: Privately-owned
Owner: CALIFORNIA LIONS CLUB
CITY OF CALIFORNIA
CALIFORNIA, MO 65018
Phone (573) 796-3151
ASK FOR BECKY LAWSON
Manager: CITY CLERK
500 S OAK STREET
CALIFORNIA, MO 65018
Phone (573) 796-2500

Additional Remarks

A53-H1 PLINES SOUTH OF HELIPAD MKD WITH DAY GLOW BALLS; POWER POLE 30 FT ENE 100 FT MKD WITH RED LGTS; POWER POLL 30 FT WNE 120 FT MKD WITH RED LGTS.

Instrument Procedures

There are no published instrument procedures at 48MO.

Some nearby airports with instrument procedures:

H79 - Eldon Model Airpark (16 nm S)
KJEF - Jefferson City Memorial Airport (18 nm E)
KCOU - Columbia Regional Airport (19 nm NE)
KVER - Jesse Viertel Memorial Airport (20 nm N)
KFTT - Elton Hensley Memorial Airport (28 nm NE)
 
Loc | Ops | Rwys | IFR | FBO | Links
Com | Nav | Svcs | Stats | Notes

Kansas City Aviation Department
 
Area around 48MO (Lions Emergency Evac Heliport)
 
Road maps at: MapQuest Bing Google
 
Aerial photo
No photo
 
Sectional chart

 
Airport distance calculator
Flying to Lions Emergency Evac Heliport? Find the distance to fly.

From to 48MO

Sunrise and sunset
Times for 22-Feb-2019
 Local
(UTC-6)
 Zulu
(UTC)
Morning civil twilight06:2612:26
Sunrise06:5312:53
Sunset17:5423:54
Evening civil twilight18:2100:21

Current date and time
Zulu (UTC)  22-Feb-2019 21:39:37
Local (UTC-6)  22-Feb-2019 15:39:37
 
METAR
KJEF 
18nm E 
222053Z 10011KT 10SM OVC032 06/M02 A3019 RMK AO2 RAB38E52 SLP216 P0000 60001 T00561017 56026
KCOU 
19nm NE 
222054Z 11012KT 10SM OVC031 05/M02 A3017 RMK AO2 SLP222 T00501022 56027 $
KVER 
20nm N 
222115Z AUTO 11013G16KT 10SM OVC029 05/M03 A3017 RMK AO2 T00541026
KDMO 
30nm W 
222123Z AUTO 11009G21KT 5SM HZ SCT022 OVC035 04/01 A3013 RMK AO2 T00440011
KAIZ 
32nm S 
222120Z AUTO 10006KT 2SM -RA BR BKN009 OVC014 03/03 A3016 RMK AO2 CIG 005V010 P0005
TAF
KCOU 
19nm NE 
222012Z 2220/2318 10011G20KT P6SM VCSH OVC025 TEMPO 2220/2222 SCT025 BKN035 FM230000 11008KT P6SM OVC015 FM231000 11005KT 3SM -SHRA OVC006 FM231400 12006KT P6SM OVC006
NOTAMs
Click for the latest NOTAMs
NOTAMs are issued by the DoD/FAA and will open in a separate window not controlled by AirNav.

 

 
 

Would you like to see your business listed on this page?

 If your business provides an interesting product or service to pilots, flight crews, aircraft, or users of the Lions Emergency Evac Heliport, you should consider listing it here.  To start the listing process, click on the button below
 
Add a business
 

Other Pages about Lions Emergency Evac Heliport

Update a link
 
Copyright © AirNav, LLC. All rights reserved. Privacy Policy  Contact